Time;durP1;ratioP1;P1;durP2;ratioP2;P2;SDS_P1;SDS_P2;PMS_P1;PMS_P2;Temp;Humidity;BMP_temperature;BMP_pressure;BME280_temperature;BME280_humidity;BME280_pressure;Samples;Min_cycle;Max_cycle;Signal;HPM_P1;HPM_P2
2021/05/28 00:01:28;;;;;;;6.30;5.20;;;;;;;8.26;73.82;100525.00;102792;1117;81368;-60
2021/05/28 00:03:34;;;;;;;7.30;5.40;;;;;;;8.24;73.80;100518.95;102813;1117;80681;-60
2021/05/28 00:05:41;;;;;;;7.10;5.80;;;;;;;8.25;73.94;100516.08;102820;1118;79868;-60
2021/05/28 00:07:46;;;;;;;6.40;5.30;;;;;;;8.18;73.90;100531.23;102805;1117;80933;-60
2021/05/28 00:09:52;;;;;;;7.20;5.90;;;;;;;8.13;74.01;100522.00;102800;1117;80551;-59
2021/05/28 00:11:57;;;;;;;6.90;5.70;;;;;;;8.10;74.04;100527.72;102804;1117;81668;-60
2021/05/28 00:14:07;;;;;;;6.10;5.50;;;;;;;8.06;74.07;100534.44;102809;1117;81814;-60
2021/05/28 00:16:13;;;;;;;7.90;5.70;;;;;;;8.06;74.13;100534.44;102817;1118;79689;-60
2021/05/28 00:18:18;;;;;;;6.40;5.60;;;;;;;8.07;74.23;100528.91;102814;1117;81422;-60
2021/05/28 00:20:24;;;;;;;8.40;5.40;;;;;;;8.05;74.11;100527.36;102799;1117;81869;-60
2021/05/28 00:22:30;;;;;;;6.60;5.60;;;;;;;8.06;74.28;100524.52;102787;1117;81458;-60
2021/05/28 00:24:35;;;;;;;6.40;5.30;;;;;;;8.08;74.69;100522.49;102801;1117;82454;-60
2021/05/28 00:26:41;;;;;;;6.30;5.10;;;;;;;8.09;74.39;100523.34;102820;1117;80242;-60
2021/05/28 00:28:49;;;;;;;7.30;5.10;;;;;;;8.12;74.60;100531.92;102789;1117;81720;-60
2021/05/28 00:30:55;;;;;;;6.00;5.40;;;;;;;8.09;74.79;100526.03;102824;1117;81403;-60
2021/05/28 00:33:01;;;;;;;6.90;5.20;;;;;;;8.03;74.89;100537.46;102837;1117;80874;-61
2021/05/28 00:35:09;;;;;;;6.50;5.80;;;;;;;8.04;74.98;100531.93;102821;1117;80185;-60
2021/05/28 00:37:18;;;;;;;7.50;5.80;;;;;;;8.03;74.84;100534.77;102820;1118;80675;-60
2021/05/28 00:39:24;;;;;;;7.40;5.40;;;;;;;8.01;74.84;100539.48;102778;1118;80885;-60
2021/05/28 00:41:30;;;;;;;7.00;5.70;;;;;;;8.01;74.68;100539.48;102779;1117;80900;-60
2021/05/28 00:43:35;;;;;;;8.60;6.00;;;;;;;8.02;74.86;100535.80;102802;1117;80902;-60
2021/05/28 00:45:41;;;;;;;7.00;6.30;;;;;;;7.98;74.88;100535.29;102798;1118;81286;-60
2021/05/28 00:47:47;;;;;;;8.30;6.80;;;;;;;7.98;74.75;100543.36;102820;1117;81913;-60
2021/05/28 00:49:56;;;;;;;13.00;7.70;;;;;;;7.92;74.84;100535.11;102809;1117;79784;-60
2021/05/28 00:52:05;;;;;;;8.10;7.10;;;;;;;7.91;74.51;100533.45;102778;1117;82126;-60
2021/05/28 00:54:12;;;;;;;12.30;7.00;;;;;;;7.87;74.80;100529.41;102812;1117;80576;-60
2021/05/28 00:56:18;;;;;;;6.80;5.90;;;;;;;7.83;74.65;100536.14;102811;1117;81192;-60
2021/05/28 00:58:25;;;;;;;8.30;6.40;;;;;;;7.80;74.70;100542.67;102838;1118;80290;-60
2021/05/28 01:00:31;;;;;;;7.80;6.30;;;;;;;7.82;75.15;100548.75;102819;1118;80225;-62
2021/05/28 01:02:37;;;;;;;9.30;6.70;;;;;;;7.77;75.08;100556.48;102787;1117;81914;-60
2021/05/28 01:04:43;;;;;;;7.30;6.30;;;;;;;7.77;75.01;100547.56;102802;1117;81606;-61
2021/05/28 01:06:48;;;;;;;8.90;5.60;;;;;;;7.76;74.92;100551.25;102803;1117;81174;-59
2021/05/28 01:08:54;;;;;;;9.10;6.60;;;;;;;7.75;75.02;100553.09;102819;1117;81934;-61
2021/05/28 01:10:59;;;;;;;7.40;6.20;;;;;;;7.67;75.37;100553.94;102790;1117;80627;-60
2021/05/28 01:13:08;;;;;;;7.80;6.70;;;;;;;7.66;75.33;100552.25;102793;1117;82230;-60
2021/05/28 01:15:15;;;;;;;7.90;6.70;;;;;;;7.67;75.18;100553.09;102794;1117;81674;-59
2021/05/28 01:17:21;;;;;;;8.60;5.90;;;;;;;7.66;75.22;100551.44;102841;1117;80944;-60
2021/05/28 01:19:27;;;;;;;6.60;5.90;;;;;;;7.65;75.64;100550.59;102814;1117;81584;-61
2021/05/28 01:21:36;;;;;;;8.60;7.20;;;;;;;7.64;75.86;100559.64;102754;1117;80959;-61
2021/05/28 01:23:41;;;;;;;9.90;6.60;;;;;;;7.65;75.80;100552.43;102809;1117;79852;-59
2021/05/28 01:25:47;;;;;;;7.70;6.70;;;;;;;7.64;75.87;100565.02;102817;1117;80164;-60
2021/05/28 01:27:53;;;;;;;7.70;6.80;;;;;;;7.64;75.81;100556.95;102775;1117;80960;-61
2021/05/28 01:29:59;;;;;;;7.40;6.40;;;;;;;7.63;75.76;100565.20;102800;1117;82165;-61
2021/05/28 01:32:05;;;;;;;6.80;5.80;;;;;;;7.61;75.75;100569.88;102764;1117;82009;-61
2021/05/28 01:34:11;;;;;;;7.80;6.30;;;;;;;7.58;75.88;100565.68;102836;1117;81656;-60
2021/05/28 01:36:17;;;;;;;8.40;6.90;;;;;;;7.54;75.60;100558.97;102830;1117;81020;-60
2021/05/28 01:38:22;;;;;;;7.30;6.60;;;;;;;7.51;75.88;100564.67;102789;1117;80866;-60
2021/05/28 01:40:28;;;;;;;8.40;7.30;;;;;;;7.50;75.68;100562.14;102785;1117;81756;-59
2021/05/28 01:42:34;;;;;;;9.80;7.20;;;;;;;7.49;75.63;100571.23;102828;1117;81323;-59
2021/05/28 01:44:41;;;;;;;10.80;7.80;;;;;;;7.45;75.69;100576.08;102775;1117;81488;-59
2021/05/28 01:46:48;;;;;;;9.70;7.30;;;;;;;7.45;75.83;100576.08;102797;1117;81657;-60
2021/05/28 01:48:59;;;;;;;8.60;7.20;;;;;;;7.49;75.84;100577.45;102810;1117;81812;-60
2021/05/28 01:51:06;;;;;;;9.80;7.70;;;;;;;7.49;75.75;100577.45;102830;1118;80967;-59
2021/05/28 01:53:14;;;;;;;10.30;7.00;;;;;;;7.49;76.01;100577.45;102831;1117;81132;-60
2021/05/28 01:55:19;;;;;;;11.60;7.50;;;;;;;7.51;76.11;100574.58;102804;1118;80981;-60
2021/05/28 01:57:25;;;;;;;7.80;6.70;;;;;;;7.51;75.64;100577.27;102793;1117;82015;-60
2021/05/28 01:59:31;;;;;;;8.50;7.60;;;;;;;7.47;75.84;100573.25;102806;1117;80483;-60
2021/05/28 02:01:37;;;;;;;8.80;7.40;;;;;;;7.43;75.95;100580.80;102801;1117;81758;-60
2021/05/28 02:03:42;;;;;;;8.70;7.80;;;;;;;7.40;75.88;100577.58;102811;1117;81697;-61
2021/05/28 02:05:51;;;;;;;9.70;7.70;;;;;;;7.41;75.84;100574.75;102808;1117;81124;-61
2021/05/28 02:07:57;;;;;;;10.70;7.90;;;;;;;7.40;76.21;100581.12;102807;1117;80086;-60
2021/05/28 02:10:04;;;;;;;8.90;7.80;;;;;;;7.41;76.18;100580.13;102805;1117;81201;-61
2021/05/28 02:12:11;;;;;;;10.20;8.00;;;;;;;7.45;76.15;100577.92;102829;1117;80890;-61
2021/05/28 02:14:16;;;;;;;10.30;8.40;;;;;;;7.44;76.34;100577.11;102840;1117;80403;-61
2021/05/28 02:16:22;;;;;;;10.30;8.90;;;;;;;7.44;76.28;100573.58;102819;1117;80947;-61
2021/05/28 02:18:28;;;;;;;10.90;9.40;;;;;;;7.38;76.06;100575.08;102826;1117;80631;-61
2021/05/28 02:20:34;;;;;;;12.40;9.10;;;;;;;7.36;76.16;100577.06;102782;1117;79693;-61
2021/05/28 02:22:43;;;;;;;13.00;9.10;;;;;;;7.35;76.18;100572.71;102801;1117;81430;-60
2021/05/28 02:24:51;;;;;;;9.90;8.30;;;;;;;7.36;76.17;100571.69;102799;1117;81593;-60
2021/05/28 02:26:57;;;;;;;11.30;9.40;;;;;;;7.40;76.38;100577.58;102811;1117;80171;-60
2021/05/28 02:29:03;;;;;;;10.40;9.00;;;;;;;7.35;76.33;100570.02;102770;1118;81441;-61
2021/05/28 02:31:12;;;;;;;10.60;9.30;;;;;;;7.36;76.56;100565.50;102802;1117;81476;-61
2021/05/28 02:33:17;;;;;;;10.70;9.00;;;;;;;7.37;76.30;100569.84;102782;1117;80032;-61
2021/05/28 02:35:26;;;;;;;11.80;9.30;;;;;;;7.39;76.54;100570.55;102795;1117;80133;-60
2021/05/28 02:37:31;;;;;;;10.30;8.30;;;;;;;7.40;76.71;100575.74;102815;1117;81379;-60
2021/05/28 02:39:37;;;;;;;11.00;8.50;;;;;;;7.42;76.83;100586.31;102862;1117;81175;-60
2021/05/28 02:41:43;;;;;;;11.60;8.60;;;;;;;7.40;76.82;100591.87;102817;1117;82881;-60
2021/05/28 02:43:48;;;;;;;11.10;8.60;;;;;;;7.41;76.88;100601.63;102809;1117;80777;-60
2021/05/28 02:45:54;;;;;;;9.80;8.40;;;;;;;7.43;76.66;100596.92;102782;1117;82917;-60
2021/05/28 02:48:00;;;;;;;9.20;8.00;;;;;;;7.48;76.92;100593.72;102800;1117;82590;-60
2021/05/28 02:50:10;;;;;;;11.80;9.30;;;;;;;7.56;76.75;100591.05;102853;1117;81234;-60
2021/05/28 02:52:19;;;;;;;12.50;9.10;;;;;;;7.62;76.62;100593.08;102832;1118;81556;-60
2021/05/28 02:54:25;;;;;;;12.50;9.60;;;;;;;7.68;76.82;100597.80;102783;1117;81614;-61
2021/05/28 02:56:31;;;;;;;10.10;9.00;;;;;;;7.79;76.67;100593.95;102788;1117;80818;-61
2021/05/28 02:58:39;;;;;;;11.90;8.90;;;;;;;7.85;76.83;100599.52;102776;1117;81827;-59
2021/05/28 03:00:45;;;;;;;10.70;9.60;;;;;;;7.90;77.08;100601.69;102803;1118;80032;-60
2021/05/28 03:02:51;;;;;;;12.10;9.20;;;;;;;7.97;77.06;100594.63;102817;1117;80296;-60
2021/05/28 03:04:57;;;;;;;11.10;10.00;;;;;;;8.09;77.07;100601.36;102784;1118;80461;-60
2021/05/28 03:07:03;;;;;;;11.80;10.00;;;;;;;8.17;77.18;100604.89;102806;1117;80986;-60
2021/05/28 03:09:09;;;;;;;12.30;11.10;;;;;;;8.26;77.35;100598.51;102802;1117;80968;-60
2021/05/28 03:11:14;;;;;;;12.60;10.90;;;;;;;8.38;77.30;100601.70;102807;1117;81782;-60
2021/05/28 03:13:20;;;;;;;16.60;13.20;;;;;;;8.54;77.54;100593.59;102811;1117;81131;-60
2021/05/28 03:15:26;;;;;;;12.90;11.00;;;;;;;8.70;77.33;100590.89;102848;1117;81607;-60
2021/05/28 03:17:32;;;;;;;12.10;10.50;;;;;;;8.89;77.53;100585.10;102806;1117;81064;-61
2021/05/28 03:19:42;;;;;;;13.70;11.30;;;;;;;9.10;77.53;100587.19;102817;1117;81601;-61
2021/05/28 03:24:14;;;;;;;;;;;;;;;9.62;77.68;100584.71;102816;1117;81597;-61
2021/05/28 03:26:21;;;;;;;13.50;12.10;;;;;;;9.85;77.79;100587.42;102803;1117;80854;-60
2021/05/28 03:28:30;;;;;;;13.10;11.80;;;;;;;10.07;77.52;100590.13;102832;1117;80959;-60
2021/05/28 03:30:39;;;;;;;12.90;11.50;;;;;;;10.34;77.45;100588.73;102805;1117;81431;-60
2021/05/28 03:32:45;;;;;;;14.90;12.40;;;;;;;10.66;77.28;100579.45;102823;1117;81618;-60
2021/05/28 03:34:54;;;;;;;12.80;11.50;;;;;;;10.83;76.72;100577.41;102796;1117;79938;-60
2021/05/28 03:37:00;;;;;;;12.20;11.00;;;;;;;10.99;76.65;100582.61;102802;1117;81384;-60
2021/05/28 03:39:07;;;;;;;13.00;11.40;;;;;;;11.47;76.68;100575.73;102839;1117;81128;-61
2021/05/28 03:41:14;;;;;;;13.20;11.30;;;;;;;12.01;75.79;100582.38;102830;1117;81847;-61
2021/05/28 03:43:22;;;;;;;11.40;10.20;;;;;;;12.07;75.14;100581.60;102817;1117;81041;-60
2021/05/28 03:45:28;;;;;;;11.60;10.40;;;;;;;12.05;74.78;100578.26;102800;1117;81689;-60
2021/05/28 03:47:34;;;;;;;13.10;11.40;;;;;;;11.97;74.61;100581.10;102804;1117;81863;-60
2021/05/28 03:49:42;;;;;;;11.90;10.60;;;;;;;11.92;74.51;100588.13;102827;1118;79929;-60
2021/05/28 03:51:51;;;;;;;12.30;11.10;;;;;;;11.85;74.35;100588.05;102819;1117;81374;-60
2021/05/28 03:53:57;;;;;;;12.20;10.80;;;;;;;11.76;74.37;100586.48;102798;1117;81501;-61
2021/05/28 03:56:07;;;;;;;12.40;10.70;;;;;;;11.70;74.36;100588.09;102786;1117;81028;-61
2021/05/28 03:58:13;;;;;;;12.30;11.00;;;;;;;11.66;74.17;100586.78;102797;1117;80651;-61
2021/05/28 04:00:20;;;;;;;11.90;10.40;;;;;;;11.67;74.17;100584.92;102791;1117;81603;-59
2021/05/28 04:02:26;;;;;;;11.20;10.10;;;;;;;11.59;74.18;100587.75;102847;1117;80972;-60
2021/05/28 04:04:33;;;;;;;12.20;10.90;;;;;;;11.57;74.17;100587.92;102810;1117;82388;-59
2021/05/28 04:06:42;;;;;;;12.60;11.30;;;;;;;11.54;74.23;100584.75;102790;1117;81725;-60
2021/05/28 04:08:47;;;;;;;12.40;10.90;;;;;;;11.49;74.19;100587.20;102810;1117;81749;-59
2021/05/28 04:10:53;;;;;;;12.10;10.70;;;;;;;11.45;74.23;100581.35;102816;1117;82173;-60
2021/05/28 04:12:59;;;;;;;12.80;10.60;;;;;;;11.47;74.17;100581.99;102849;1117;81936;-59
2021/05/28 04:15:11;;;;;;;11.20;10.00;;;;;;;11.50;74.18;100586.18;102827;1117;81280;-60
2021/05/28 04:17:17;;;;;;;11.10;10.00;;;;;;;11.34;74.30;100570.18;102842;1117;80712;-60
2021/05/28 04:19:23;;;;;;;12.10;10.40;;;;;;;11.48;74.16;100589.06;102811;1117;81593;-59
2021/05/28 04:21:29;;;;;;;11.10;10.00;;;;;;;11.49;74.01;100590.75;102794;1117;80158;-59
2021/05/28 04:23:34;;;;;;;11.60;10.40;;;;;;;11.59;74.18;100595.87;102865;1117;81192;-59
2021/05/28 04:25:40;;;;;;;11.10;9.50;;;;;;;11.64;74.17;100593.42;102827;1117;79916;-59
2021/05/28 04:27:46;;;;;;;11.20;9.70;;;;;;;11.66;74.19;100599.47;102800;1118;81719;-60
2021/05/28 04:29:52;;;;;;;10.50;9.50;;;;;;;11.73;74.27;100597.70;102854;1117;81006;-61
2021/05/28 04:31:57;;;;;;;10.60;9.50;;;;;;;11.76;74.09;100605.44;102774;1117;80947;-61
2021/05/28 04:34:03;;;;;;;10.80;9.40;;;;;;;11.80;74.02;100604.03;102837;1117;81037;-59
2021/05/28 04:36:09;;;;;;;10.60;9.60;;;;;;;11.87;74.15;100598.70;102798;1118;82566;-58
2021/05/28 04:38:15;;;;;;;11.00;9.70;;;;;;;11.97;73.97;100608.17;102827;1117;81081;-60
2021/05/28 04:40:21;;;;;;;10.40;9.40;;;;;;;12.06;73.85;100606.19;102830;1117;80575;-60
2021/05/28 04:42:27;;;;;;;10.80;9.40;;;;;;;12.07;74.02;100600.56;102815;1117;80964;-60
2021/05/28 04:44:32;;;;;;;10.30;9.30;;;;;;;12.10;74.05;100602.88;102797;1117;81180;-60
2021/05/28 04:46:38;;;;;;;9.70;8.60;;;;;;;12.16;73.96;100603.97;102792;1117;82016;-60
2021/05/28 04:48:44;;;;;;;9.40;8.40;;;;;;;12.28;73.74;100603.23;102807;1117;80890;-60
2021/05/28 04:50:49;;;;;;;10.10;9.00;;;;;;;12.32;73.65;100596.41;102791;1117;82402;-61
2021/05/28 04:52:59;;;;;;;11.30;9.10;;;;;;;12.42;73.52;100606.89;102794;1117;82568;-58
2021/05/28 04:55:07;;;;;;;9.10;8.20;;;;;;;12.53;73.55;100600.94;102827;1117;80216;-59
2021/05/28 04:57:13;;;;;;;10.30;9.20;;;;;;;12.63;73.36;100601.45;102818;1117;79970;-56
2021/05/28 04:59:19;;;;;;;9.40;8.40;;;;;;;12.75;73.44;100596.30;102749;1117;81696;-59
2021/05/28 05:01:25;;;;;;;8.80;7.90;;;;;;;12.90;73.19;100599.74;102834;1117;80821;-59
2021/05/28 05:03:30;;;;;;;8.80;7.90;;;;;;;13.07;73.22;100611.98;102814;1117;79755;-59
2021/05/28 05:05:36;;;;;;;9.80;8.80;;;;;;;13.36;72.99;100603.56;102828;1117;80895;-60
2021/05/28 05:07:42;;;;;;;8.80;8.00;;;;;;;13.65;72.98;100602.43;102796;1117;81382;-59
2021/05/28 05:09:48;;;;;;;11.20;9.30;;;;;;;13.98;72.48;100605.22;102803;1117;81516;-60
2021/05/28 05:11:54;;;;;;;7.80;7.10;;;;;;;14.23;72.03;100606.27;102797;1117;81555;-60
2021/05/28 05:14:03;;;;;;;9.20;8.30;;;;;;;14.42;71.72;100607.38;102810;1117;81322;-59
2021/05/28 05:16:11;;;;;;;8.10;7.30;;;;;;;14.53;71.00;100606.75;102800;1117;81608;-60
2021/05/28 05:18:17;;;;;;;7.70;7.00;;;;;;;14.63;70.79;100610.72;102827;1117;81434;-59
2021/05/28 05:20:23;;;;;;;9.00;7.80;;;;;;;14.96;70.31;100610.67;102828;1117;79966;-59
2021/05/28 05:22:29;;;;;;;8.50;7.30;;;;;;;15.07;70.39;100609.17;102801;1117;80952;-59
2021/05/28 05:24:35;;;;;;;7.40;6.60;;;;;;;15.38;70.09;100612.02;102822;1117;81092;-59
2021/05/28 05:26:41;;;;;;;8.20;7.30;;;;;;;15.50;69.28;100610.30;102822;1117;81494;-59
2021/05/28 05:28:46;;;;;;;9.00;7.30;;;;;;;15.52;68.82;100610.11;102799;1117;81365;-60
2021/05/28 05:30:52;;;;;;;9.00;6.90;;;;;;;15.60;68.45;100612.58;102813;1117;82095;-61
2021/05/28 05:32:58;;;;;;;7.90;7.20;;;;;;;15.57;68.13;100611.13;102796;1117;80149;-59
2021/05/28 05:35:05;;;;;;;7.60;6.80;;;;;;;15.94;68.00;100614.89;102816;1117;81025;-59
2021/05/28 05:37:11;;;;;;;7.70;7.00;;;;;;;16.33;67.68;100611.06;102825;1117;80867;-59
2021/05/28 05:39:21;;;;;;;7.50;6.40;;;;;;;16.77;67.06;100610.92;102828;1117;80916;-60
2021/05/28 05:41:28;;;;;;;7.80;6.80;;;;;;;17.27;66.74;100605.36;102793;1117;81921;-60
2021/05/28 05:43:33;;;;;;;6.60;5.90;;;;;;;17.71;65.37;100606.94;102814;1117;81224;-60
2021/05/28 05:45:41;;;;;;;7.50;5.90;;;;;;;17.85;64.79;100601.07;102829;1117;81150;-60
2021/05/28 05:47:47;;;;;;;7.60;6.30;;;;;;;18.16;64.06;100609.00;102819;1117;81811;-59
2021/05/28 05:49:53;;;;;;;6.80;6.10;;;;;;;18.64;63.22;100608.05;102812;1117;81877;-59
2021/05/28 05:51:58;;;;;;;7.70;5.90;;;;;;;19.30;62.69;100603.02;102803;1117;80675;-59
2021/05/28 05:54:07;;;;;;;6.40;5.80;;;;;;;19.68;61.31;100596.14;102807;1118;81585;-58
2021/05/28 05:56:12;;;;;;;6.80;6.10;;;;;;;19.73;60.27;100604.47;102808;1117;79895;-61
2021/05/28 05:58:18;;;;;;;6.80;5.50;;;;;;;20.13;60.04;100602.52;102814;1117;81866;-59
2021/05/28 06:00:27;;;;;;;7.80;5.90;;;;;;;21.25;58.71;100605.16;102815;1118;82497;-59
2021/05/28 06:02:32;;;;;;;6.10;5.60;;;;;;;22.34;57.20;100604.80;102822;1117;81989;-59
2021/05/28 06:04:38;;;;;;;8.10;7.30;;;;;;;23.61;54.99;100605.69;102777;1117;81763;-59
2021/05/28 06:06:45;;;;;;;6.90;5.30;;;;;;;24.27;53.14;100602.03;102771;1117;80611;-60
2021/05/28 06:08:51;;;;;;;5.20;4.70;;;;;;;23.98;52.54;100595.33;102826;1117;80473;-60
2021/05/28 06:11:00;;;;;;;5.30;4.80;;;;;;;23.90;51.85;100604.95;102849;1117;81791;-60
2021/05/28 06:13:07;;;;;;;5.30;4.50;;;;;;;23.83;50.10;100603.56;102801;1117;82453;-59
2021/05/28 06:15:13;;;;;;;5.10;4.60;;;;;;;23.92;50.41;100613.81;102812;1117;81358;-59
2021/05/28 06:17:19;;;;;;;5.30;4.40;;;;;;;24.04;49.53;100605.26;102832;1117;81162;-59
2021/05/28 06:19:25;;;;;;;6.10;4.50;;;;;;;23.91;49.04;100612.14;102797;1117;80253;-60
2021/05/28 06:21:33;;;;;;;5.30;4.70;;;;;;;23.23;49.19;100618.72;102811;1118;81613;-60
2021/05/28 06:23:38;;;;;;;6.10;4.90;;;;;;;22.78;49.45;100608.22;102797;1117;80906;-59
2021/05/28 06:25:46;;;;;;;6.30;4.60;;;;;;;22.38;49.19;100618.88;102819;1117;82327;-60
2021/05/28 06:27:51;;;;;;;6.90;4.50;;;;;;;21.91;49.13;100613.17;102792;1117;81431;-59
2021/05/28 06:29:58;;;;;;;5.70;5.10;;;;;;;21.44;49.73;100617.52;102791;1117;81321;-59
2021/05/28 06:32:04;;;;;;;5.00;4.20;;;;;;;21.05;50.64;100614.75;102844;1117;81304;-58
2021/05/28 06:34:09;;;;;;;5.10;4.30;;;;;;;20.86;50.87;100620.77;102785;1117;81296;-59
2021/05/28 06:36:17;;;;;;;4.20;3.80;;;;;;;20.63;50.83;100620.97;102806;1117;79927;-59
2021/05/28 06:38:23;;;;;;;4.60;4.20;;;;;;;20.69;51.12;100626.27;102805;1117;82570;-59
2021/05/28 06:40:29;;;;;;;4.30;3.90;;;;;;;20.59;51.13;100621.46;102785;1117;81115;-60
2021/05/28 06:42:36;;;;;;;5.10;4.60;;;;;;;20.86;50.88;100629.84;102821;1117;80430;-60
2021/05/28 06:44:42;;;;;;;5.00;4.50;;;;;;;20.76;51.17;100628.86;102775;1117;79863;-59
2021/05/28 06:46:48;;;;;;;5.10;4.70;;;;;;;20.73;51.36;100626.61;102813;1117;81794;-61
2021/05/28 06:48:54;;;;;;;6.20;4.60;;;;;;;20.81;51.19;100628.94;102837;1117;82004;-59
2021/05/28 06:51:03;;;;;;;4.50;4.00;;;;;;;21.03;50.91;100627.08;102792;1117;82241;-59
2021/05/28 06:53:09;;;;;;;4.60;3.90;;;;;;;21.33;50.44;100622.05;102861;1117;82166;-60
2021/05/28 06:55:21;;;;;;;4.60;4.20;;;;;;;21.65;49.61;100623.00;102779;1117;81112;-60
2021/05/28 06:57:26;;;;;;;4.80;3.80;;;;;;;22.03;49.02;100627.59;102831;1117;83643;-59
2021/05/28 06:59:32;;;;;;;6.00;4.20;;;;;;;22.72;49.19;100614.78;102829;1117;82452;-59
2021/05/28 07:01:38;;;;;;;4.80;4.30;;;;;;;23.53;47.67;100625.52;102824;1117;80795;-59
2021/05/28 07:03:44;;;;;;;4.70;3.80;;;;;;;23.62;46.86;100624.74;102800;1117;81747;-60
2021/05/28 07:05:49;;;;;;;5.50;4.10;;;;;;;23.72;46.33;100619.25;102831;1117;81795;-60
2021/05/28 07:07:56;;;;;;;4.90;4.00;;;;;;;23.59;46.28;100621.69;102816;1117;80165;-59
2021/05/28 07:10:03;;;;;;;4.60;4.20;;;;;;;23.62;46.45;100624.74;102793;1117;80389;-59
2021/05/28 07:12:10;;;;;;;4.50;4.10;;;;;;;23.59;46.03;100619.77;102787;1117;81780;-56
2021/05/28 07:14:15;;;;;;;4.30;3.90;;;;;;;23.60;45.70;100624.16;102880;1117;81180;-60
2021/05/28 07:16:21;;;;;;;4.40;3.90;;;;;;;24.15;45.02;100619.94;102804;1117;80687;-54
2021/05/28 07:18:27;;;;;;;7.00;3.70;;;;;;;24.39;44.55;100618.34;102816;1117;80391;-54
2021/05/28 07:20:33;;;;;;;3.70;3.20;;;;;;;24.91;44.10;100621.69;102824;1117;81141;-54
2021/05/28 07:22:39;;;;;;;3.20;2.90;;;;;;;25.17;43.59;100633.51;102855;1117;81667;-54
2021/05/28 07:24:45;;;;;;;3.20;2.90;;;;;;;26.53;42.59;100621.83;102840;1117;79862;-54
2021/05/28 07:26:51;;;;;;;3.10;2.60;;;;;;;27.80;40.88;100618.60;102814;1117;79628;-54
2021/05/28 07:28:58;;;;;;;3.90;3.10;;;;;;;28.84;39.13;100622.88;102797;1117;80885;-54
2021/05/28 07:31:07;;;;;;;3.10;2.40;;;;;;;29.38;38.32;100622.17;102821;1117;80622;-52
2021/05/28 07:33:13;;;;;;;2.80;2.40;;;;;;;29.79;37.64;100620.23;102812;1117;80525;-54
2021/05/28 07:35:19;;;;;;;3.10;2.40;;;;;;;30.40;35.45;100624.44;102809;1117;80977;-59
2021/05/28 07:37:24;;;;;;;3.00;2.40;;;;;;;30.22;35.31;100619.80;102806;1117;79761;-60
2021/05/28 07:39:30;;;;;;;3.30;2.10;;;;;;;30.77;34.53;100621.27;102800;1117;80877;-60
2021/05/28 07:41:37;;;;;;;2.30;2.00;;;;;;;31.43;33.83;100622.30;102817;1117;81744;-60
2021/05/28 07:43:43;;;;;;;2.80;1.80;;;;;;;31.81;32.99;100629.02;102831;1118;81729;-60
2021/05/28 07:45:50;;;;;;;2.30;2.00;;;;;;;32.25;32.53;100622.38;102814;1117;82504;-59
2021/05/28 07:47:56;;;;;;;2.30;2.10;;;;;;;32.14;31.86;100628.64;102860;1117;80269;-59
2021/05/28 07:50:04;;;;;;;2.50;2.00;;;;;;;31.88;30.60;100618.20;102850;1117;81188;-59
2021/05/28 07:52:10;;;;;;;3.00;2.10;;;;;;;31.78;30.70;100618.49;102804;1117;80589;-59
2021/05/28 07:54:17;;;;;;;2.20;1.60;;;;;;;32.00;31.06;100617.58;102791;1117;82622;-58
2021/05/28 07:56:22;;;;;;;2.50;1.70;;;;;;;32.25;30.84;100616.78;102817;1117;81116;-59
2021/05/28 07:58:30;;;;;;;2.70;1.70;;;;;;;32.38;29.74;100613.03;102788;1118;80244;-59
2021/05/28 08:00:36;;;;;;;2.30;2.10;;;;;;;31.90;30.25;100618.70;102811;1118;81658;-59
2021/05/28 08:02:46;;;;;;;3.20;2.30;;;;;;;31.66;29.83;100620.28;102800;1117;81803;-59
2021/05/28 08:04:54;;;;;;;1.90;1.70;;;;;;;31.56;29.61;100618.63;102779;1117;81857;-59
2021/05/28 08:07:03;;;;;;;2.00;1.60;;;;;;;31.69;30.33;100620.46;102821;1117;81172;-59
2021/05/28 08:09:09;;;;;;;2.60;1.70;;;;;;;31.42;29.63;100627.09;102810;1116;81248;-59
2021/05/28 08:11:15;;;;;;;2.20;1.60;;;;;;;30.92;29.88;100622.88;102801;1117;82451;-59
2021/05/28 08:13:21;;;;;;;1.90;1.70;;;;;;;31.26;29.84;100627.83;102784;1117;81762;-60
2021/05/28 08:15:31;;;;;;;2.40;1.70;;;;;;;30.82;29.36;100621.13;102801;1117;82034;-60
2021/05/28 08:17:37;;;;;;;1.90;1.50;;;;;;;30.03;29.28;100610.78;102797;1117;81273;-60
2021/05/28 08:19:43;;;;;;;2.80;1.50;;;;;;;29.45;29.80;100618.95;102781;1117;81472;-60
2021/05/28 08:21:50;;;;;;;2.80;1.70;;;;;;;28.19;30.66;100630.28;102771;1117;81741;-59
2021/05/28 08:23:56;;;;;;;1.80;1.40;;;;;;;29.11;30.81;100624.89;102797;1117;82125;-59
2021/05/28 08:26:02;;;;;;;2.50;1.50;;;;;;;29.25;30.17;100622.98;102813;1117;80315;-60
2021/05/28 08:28:11;;;;;;;3.00;1.70;;;;;;;28.40;31.26;100616.92;102811;1117;81187;-61
2021/05/28 08:30:19;;;;;;;1.90;1.60;;;;;;;29.29;32.10;100617.61;102794;1117;80876;-61
2021/05/28 08:32:25;;;;;;;2.50;1.80;;;;;;;29.88;31.45;100613.92;102864;1117;81229;-59
2021/05/28 08:34:30;;;;;;;3.30;1.90;;;;;;;30.31;30.30;100617.93;102846;1117;80502;-59
2021/05/28 08:36:36;;;;;;;2.30;1.60;;;;;;;29.33;29.95;100619.48;102795;1118;81599;-59
2021/05/28 08:38:42;;;;;;;2.60;1.80;;;;;;;29.63;30.89;100612.47;102790;1117;81779;-54
2021/05/28 08:40:48;;;;;;;2.00;1.70;;;;;;;29.83;30.69;100619.61;102844;1116;81889;-54
2021/05/28 08:42:54;;;;;;;2.10;1.70;;;;;;;30.37;30.28;100620.33;102792;1117;81359;-54
2021/05/28 08:45:00;;;;;;;2.30;1.90;;;;;;;30.41;29.60;100623.28;102687;1117;80524;-54
2021/05/28 08:47:06;;;;;;;3.20;2.10;;;;;;;30.03;29.46;100610.78;102809;1117;81763;-54
2021/05/28 08:49:12;;;;;;;3.10;1.80;;;;;;;30.24;30.02;100615.56;102842;1117;81884;-55
2021/05/28 08:51:19;;;;;;;2.30;1.50;;;;;;;30.78;29.64;100613.73;102825;1117;81714;-56
2021/05/28 08:53:25;;;;;;;2.20;1.70;;;;;;;30.20;28.66;100617.34;102805;1117;81756;-54
2021/05/28 08:55:31;;;;;;;3.80;1.50;;;;;;;28.64;29.16;100624.05;102810;1117;80232;-55
2021/05/28 08:57:41;;;;;;;2.20;1.10;;;;;;;27.24;30.03;100629.50;102833;1117;80642;-55
2021/05/28 08:59:47;;;;;;;2.00;1.20;;;;;;;26.43;31.03;100630.20;102803;1117;81834;-55
2021/05/28 09:01:53;;;;;;;2.40;1.40;;;;;;;26.05;32.30;100626.27;102833;1117;80827;-56
2021/05/28 09:04:04;;;;;;;1.80;1.00;;;;;;;26.35;33.21;100630.81;102790;1117;80984;-55
2021/05/28 09:06:19;;;;;;;1.70;1.00;;;;;;;26.90;33.02;100633.16;102832;1117;81485;-54
2021/05/28 09:08:34;;;;;;;1.20;1.00;;;;;;;27.74;32.10;100620.62;102806;1117;81506;-54
2021/05/28 09:10:42;;;;;;;1.60;1.10;;;;;;;27.99;31.53;100616.67;102797;1117;81073;-54
2021/05/28 09:12:49;;;;;;;2.10;1.00;;;;;;;27.67;31.22;100610.98;102810;1117;81412;-54
2021/05/28 09:14:55;;;;;;;2.40;1.10;;;;;;;27.86;31.62;100614.61;102800;1117;82640;-55
2021/05/28 09:17:02;;;;;;;1.70;1.00;;;;;;;27.76;31.98;100611.98;102801;1117;80739;-55
2021/05/28 09:19:10;;;;;;;1.50;1.00;;;;;;;27.42;32.02;100618.50;102840;1117;80121;-53
2021/05/28 09:21:23;;;;;;;2.00;0.90;;;;;;;27.52;32.46;100612.81;102781;1117;80462;-53
2021/05/28 09:23:34;;;;;;;2.70;0.90;;;;;;;27.56;31.99;100615.83;102837;1117;82438;-54
2021/05/28 09:26:01;;;;;;;1.30;0.90;;;;;;;27.45;31.17;100612.36;102797;1117;80728;-58
2021/05/28 09:28:11;;;;;;;1.10;0.80;;;;;;;27.33;32.17;100611.91;102795;1117;81357;-58
2021/05/28 09:30:20;;;;;;;0.90;0.80;;;;;;;27.16;32.39;100610.73;102796;1117;81376;-58
2021/05/28 09:32:27;;;;;;;1.40;1.00;;;;;;;26.57;32.12;100608.20;102846;1117;80004;-56
2021/05/28 09:34:33;;;;;;;1.90;1.20;;;;;;;26.06;32.43;100600.25;102838;1117;81855;-57
2021/05/28 09:36:40;;;;;;;1.60;1.00;;;;;;;25.77;32.89;100602.05;102776;1117;81765;-56
2021/05/28 09:39:04;;;;;;;1.80;0.90;;;;;;;25.84;33.63;100601.75;102809;1117;81630;-55
2021/05/28 09:41:08;;;;;;;;;;;;;;;25.84;33.51;100596.22;102799;1117;82171;-54
2021/05/28 09:43:21;;;;;;;2.00;0.90;;;;;;;25.56;34.38;100590.27;102812;1117;81809;-55
2021/05/28 09:45:35;;;;;;;1.30;1.10;;;;;;;25.49;35.24;100594.45;102849;1117;80926;-54